This is the latest recevied weather packets stored in our database for station/object SQ2CET-13. If no packets are shown the sender has not sent any weather packets the latest 10 day(s).
| Time | Temp. | Humidity | Pressure | Rain* | Wind** | Luminosity | Snow |
|---|---|---|---|---|---|---|---|
| 1777467072 | 11.11° C | 38% | 1031.4 hPa | 0 mm | - | 488 W/m² | - |
| 1777466449 | 10.56° C | 39% | 1031.5 hPa | 0 mm | - | 500 W/m² | - |
| 1777460461 | 10° C | 38% | 1031.6 hPa | 0 mm | - | 499 W/m² | - |
| 1777459822 | 10° C | 38% | 1031.8 hPa | 0 mm | - | 479 W/m² | - |
| 1777456237 | 8.89° C | 39% | 1031.7 hPa | 0 mm | - | 589 W/m² | - |
| 1777453869 | 9.44° C | 39% | 1031.8 hPa | 0 mm | - | 769 W/m² | - |
| 1777453250 | 7.78° C | 43% | 1031.8 hPa | 0 mm | - | 284 W/m² | - |
| 1777449070 | 7.78° C | 52% | 1031.5 hPa | 0 mm | - | 444 W/m² | - |
| 1777446638 | 6.11° C | 71% | 1031.5 hPa | 0 mm | - | 215 W/m² | - |
| 1777446061 | 5.56° C | 75% | 1031.6 hPa | 0 mm | - | 227 W/m² | - |
| 1777444837 | 5° C | 79% | 1031.3 hPa | 0 mm | - | 167 W/m² | - |
| 1777443621 | 5° C | 81% | 1031.3 hPa | 0 mm | - | 319 W/m² | - |
| 1777441829 | 4.44° C | 84% | 1031.1 hPa | 0 mm | - | 121 W/m² | - |
| 1777441254 | 3.89° C | 85% | 1031.1 hPa | 0 mm | - | 101 W/m² | - |
| 1777437670 | 2.22° C | 86% | 1030.7 hPa | 0 mm | - | 50 W/m² | - |
| 1777432229 | 0° C | 92% | 1030.2 hPa | 0 mm | - | 0 W/m² | - |
| 1777427429 | 0° C | 91% | 1030.1 hPa | 0 mm | - | 0 W/m² | - |
| 1777425657 | 0° C | 91% | 1030 hPa | 0 mm | - | 0 W/m² | - |
| 1777425081 | 0° C | 91% | 1029.8 hPa | 0 mm | - | 0 W/m² | - |
| 1777423846 | 0° C | 91% | 1029.9 hPa | 0 mm | - | 0 W/m² | - |
| 1777417830 | 0.56° C | 89% | 1030.2 hPa | 0 mm | - | 0 W/m² | - |
| 1777416677 | 0.56° C | 89% | 1030 hPa | 0 mm | - | 0 W/m² | - |
| 1777414822 | 0.56° C | 90% | 1030 hPa | 0 mm | - | 0 W/m² | - |
| 1777411882 | 1.67° C | 88% | 1029.7 hPa | 0 mm | - | 0 W/m² | - |
| 1777410646 | 1.67° C | 88% | 1029.7 hPa | 0 mm | - | 0 W/m² | - |
* Rain latest hour (hover to see other rain measurements)
** Current wind speed in m/s (hover to see current wind gust speed)